Time;durP1;ratioP1;P1;durP2;ratioP2;P2;SDS_P1;SDS_P2;PMS_P1;PMS_P2;Temp;Humidity;BMP_temperature;BMP_pressure;BME280_temperature;BME280_humidity;BME280_pressure;Samples;Min_cycle;Max_cycle;Signal;HPM_P1;HPM_P2
2024/03/24 00:00:12;;;;;;;2.55;1.52;;;7.20;99.90;;;;;;5109883;28;20204;-63
2024/03/24 00:02:41;;;;;;;2.03;1.80;;;6.90;99.90;;;;;;5115062;28;20267;-63
2024/03/24 00:05:07;;;;;;;3.38;1.95;;;6.90;99.90;;;;;;5115296;28;20204;-65
2024/03/24 00:07:33;;;;;;;2.95;2.13;;;6.80;97.40;;;;;;5115033;28;20040;-63
2024/03/24 00:09:59;;;;;;;3.33;2.03;;;6.70;99.90;;;;;;5105565;28;20032;-63
2024/03/24 00:12:24;;;;;;;4.93;2.10;;;6.80;97.50;;;;;;5099671;28;20782;-63
2024/03/24 00:14:50;;;;;;;4.72;1.70;;;6.70;97.70;;;;;;5099807;28;20066;-63
2024/03/24 00:17:16;;;;;;;2.85;1.80;;;6.70;97.90;;;;;;5104576;28;20074;-63
2024/03/24 00:19:41;;;;;;;2.90;1.73;;;6.60;98.20;;;;;;5116697;27;20024;-64
2024/03/24 00:22:07;;;;;;;3.38;2.00;;;6.40;99.90;;;;;;5104341;28;20038;-64
2024/03/24 00:24:35;;;;;;;2.78;1.95;;;6.40;98.40;;;;;;5123053;28;20103;-65
2024/03/24 00:27:01;;;;;;;2.47;1.70;;;6.50;98.60;;;;;;5106977;28;20039;-64
2024/03/24 00:29:28;;;;;;;3.33;2.30;;;6.40;99.90;;;;;;5119444;28;20264;-65
2024/03/24 00:31:54;;;;;;;3.17;2.15;;;6.30;99.90;;;;;;5127086;27;20036;-64
2024/03/24 00:34:20;;;;;;;5.65;2.95;;;6.40;99.90;;;;;;5109673;28;20031;-64
2024/03/24 00:36:48;;;;;;;2.65;2.22;;;6.40;99.40;;;;;;5114999;28;20066;-64
2024/03/24 00:39:13;;;;;;;5.30;2.55;;;6.00;99.90;;;;;;5115721;28;20020;-64
2024/03/24 00:41:40;;;;;;;3.33;2.35;;;6.40;99.90;;;;;;5103685;28;20046;-64
2024/03/24 00:44:06;;;;;;;3.45;2.22;;;6.40;99.90;;;;;;5110950;28;20032;-63
2024/03/24 00:46:31;;;;;;;4.05;2.50;;;6.40;99.60;;;;;;5109172;28;20106;-63
2024/03/24 00:48:57;;;;;;;3.28;2.20;;;6.50;99.90;;;;;;5106724;28;20082;-63
2024/03/24 00:51:23;;;;;;;3.00;2.40;;;6.40;99.90;;;;;;5115124;28;20043;-63
2024/03/24 00:53:48;;;;;;;3.42;2.60;;;6.40;99.90;;;;;;5116646;28;20024;-64
2024/03/24 00:56:14;;;;;;;3.08;2.58;;;6.50;99.90;;;;;;5107409;28;20051;-64
2024/03/24 00:58:40;;;;;;;4.32;2.50;;;6.50;99.90;;;;;;5108948;28;20070;-64
2024/03/24 01:01:06;;;;;;;3.70;2.85;;;6.50;99.90;;;;;;5107170;28;20077;-64
2024/03/24 01:03:33;;;;;;;5.70;2.58;;;6.50;99.90;;;;;;5109378;28;20032;-66
2024/03/24 01:05:59;;;;;;;4.53;2.65;;;6.50;99.90;;;;;;5113214;28;20027;-66
2024/03/24 01:08:24;;;;;;;5.60;2.45;;;6.50;99.90;;;;;;5115541;28;20052;-66
2024/03/24 01:10:50;;;;;;;4.15;2.70;;;6.50;99.90;;;;;;5112944;28;20044;-65
2024/03/24 01:13:16;;;;;;;4.07;2.83;;;6.50;99.90;;;;;;5109614;28;20035;-65
2024/03/24 01:15:45;;;;;;;4.68;3.03;;;6.60;99.90;;;;;;5124559;28;20491;-64
2024/03/24 01:18:11;;;;;;;4.40;3.13;;;6.60;99.90;;;;;;5106115;28;20043;-65
2024/03/24 01:20:37;;;;;;;4.45;3.25;;;6.60;99.90;;;;;;5105137;28;20040;-65
2024/03/24 01:23:03;;;;;;;3.78;3.00;;;6.60;99.90;;;;;;5112574;28;20036;-65
2024/03/24 01:25:28;;;;;;;5.15;3.35;;;6.70;99.90;;;;;;5110416;28;20038;-66
2024/03/24 01:27:54;;;;;;;3.92;2.83;;;6.70;99.90;;;;;;5124981;28;20038;-66
2024/03/24 01:30:22;;;;;;;4.30;3.58;;;6.60;99.90;;;;;;5103733;28;20032;-66
2024/03/24 01:32:48;;;;;;;5.32;2.90;;;6.60;99.90;;;;;;5113177;28;20032;-65
2024/03/24 01:35:15;;;;;;;5.07;3.28;;;6.60;99.90;;;;;;5112408;28;20378;-65
2024/03/24 01:37:41;;;;;;;6.13;3.10;;;;;;;;;;5111183;28;20039;-65
2024/03/24 01:40:07;;;;;;;5.53;3.03;;;6.60;99.90;;;;;;5111491;28;20031;-66
2024/03/24 01:42:34;;;;;;;3.85;2.60;;;6.60;99.90;;;;;;5107257;28;20042;-65
2024/03/24 01:45:00;;;;;;;5.57;3.40;;;6.60;99.90;;;;;;5104414;28;20042;-65
2024/03/24 01:47:26;;;;;;;9.27;3.30;;;6.50;99.90;;;;;;5103701;28;20323;-65
2024/03/24 01:49:51;;;;;;;4.20;3.20;;;6.80;99.90;;;;;;5104486;28;20422;-65
2024/03/24 01:52:17;;;;;;;5.38;3.17;;;6.40;99.90;;;;;;5100966;28;20024;-65
2024/03/24 01:54:43;;;;;;;7.22;3.45;;;6.60;99.90;;;;;;5103673;28;20050;-65
2024/03/24 01:57:09;;;;;;;4.72;2.97;;;;;;;;;;5103301;28;20063;-65
2024/03/24 01:59:35;;;;;;;5.22;3.65;;;6.30;99.90;;;;;;5109671;28;20038;-68
2024/03/24 02:02:01;;;;;;;5.50;3.40;;;6.30;99.90;;;;;;5111963;28;20259;-66
2024/03/24 02:04:27;;;;;;;7.63;3.60;;;6.30;99.90;;;;;;5112957;28;20043;-65
2024/03/24 02:06:52;;;;;;;4.90;3.22;;;6.30;99.90;;;;;;5105506;28;20027;-65
2024/03/24 02:09:18;;;;;;;6.93;3.20;;;6.30;99.90;;;;;;5108159;28;20031;-66
2024/03/24 02:11:44;;;;;;;5.97;3.83;;;6.10;99.90;;;;;;5107641;28;20364;-66
2024/03/24 02:14:10;;;;;;;4.88;3.83;;;6.30;99.90;;;;;;5119542;28;20068;-66
2024/03/24 02:16:36;;;;;;;5.90;3.40;;;6.20;99.90;;;;;;5109277;28;20094;-67
2024/03/24 02:19:04;;;;;;;4.40;3.38;;;6.40;99.90;;;;;;5101876;28;20032;-65
2024/03/24 02:21:30;;;;;;;4.28;3.15;;;6.30;99.90;;;;;;5108566;28;20051;-63
2024/03/24 02:23:56;;;;;;;5.38;3.50;;;6.40;99.90;;;;;;5100649;28;20036;-63
2024/03/24 02:26:22;;;;;;;6.70;4.13;;;6.50;99.90;;;;;;5120598;28;20058;-64
2024/03/24 02:28:47;;;;;;;4.57;2.70;;;6.20;99.90;;;;;;5103929;28;20051;-64
2024/03/24 02:31:15;;;;;;;7.75;3.25;;;6.20;99.90;;;;;;5108263;28;20028;-64
2024/03/24 02:33:41;;;;;;;4.18;3.03;;;6.20;99.90;;;;;;5104313;28;20089;-65
2024/03/24 02:36:07;;;;;;;4.57;3.38;;;6.20;99.90;;;;;;5102955;28;20087;-65
2024/03/24 02:38:36;;;;;;;5.68;3.40;;;6.30;99.90;;;;;;5103799;28;20020;-64
2024/03/24 02:41:05;;;;;;;4.20;3.03;;;6.30;99.90;;;;;;5103500;28;20221;-63
2024/03/24 02:43:33;;;;;;;7.80;2.72;;;6.10;99.90;;;;;;5102889;28;20040;-63
2024/03/24 02:45:59;;;;;;;5.88;3.15;;;6.20;99.90;;;;;;5104148;28;20032;-63
2024/03/24 02:48:26;;;;;;;4.40;3.78;;;6.20;99.90;;;;;;5119192;28;20032;-62
2024/03/24 02:50:51;;;;;;;5.38;2.80;;;6.20;99.90;;;;;;5108970;28;20046;-63
2024/03/24 02:53:17;;;;;;;5.63;2.42;;;6.30;99.90;;;;;;5109075;28;20032;-66
2024/03/24 02:55:49;;;;;;;3.90;2.78;;;6.20;99.90;;;;;;5103528;28;20091;-63
2024/03/24 02:58:15;;;;;;;2.83;2.47;;;6.20;99.90;;;;;;5102317;28;20275;-66
2024/03/24 03:00:41;;;;;;;4.22;2.90;;;6.20;99.90;;;;;;5107709;28;20032;-62
2024/03/24 03:03:08;;;;;;;5.38;2.90;;;6.20;99.90;;;;;;5112178;28;20042;-62
2024/03/24 03:05:34;;;;;;;4.55;2.70;;;6.10;99.90;;;;;;5103485;28;20036;-62
2024/03/24 03:08:02;;;;;;;5.00;2.55;;;6.10;99.90;;;;;;5117760;28;20034;-63
2024/03/24 03:10:30;;;;;;;3.65;2.47;;;6.10;99.90;;;;;;5103669;28;20063;-63
2024/03/24 03:12:57;;;;;;;6.10;3.40;;;6.00;99.90;;;;;;5103302;28;20036;-64
2024/03/24 03:15:23;;;;;;;4.40;2.90;;;6.00;99.70;;;;;;5103867;28;20028;-64
2024/03/24 03:17:48;;;;;;;4.45;2.47;;;6.10;99.80;;;;;;5103277;28;20031;-63
2024/03/24 03:20:14;;;;;;;4.40;2.60;;;6.10;99.60;;;;;;5113776;28;20029;-64
2024/03/24 03:22:40;;;;;;;6.30;4.13;;;6.00;99.90;;;;;;5110071;28;20031;-64
2024/03/24 03:25:07;;;;;;;5.97;2.70;;;5.90;99.90;;;;;;5110348;28;20351;-64
2024/03/24 03:27:34;;;;;;;3.53;2.67;;;5.90;99.30;;;;;;5104532;28;20036;-63
2024/03/24 03:30:00;;;;;;;6.88;2.80;;;5.90;99.60;;;;;;5113865;28;20036;-63
2024/03/24 03:32:25;;;;;;;4.20;2.58;;;5.90;99.90;;;;;;5111595;28;20047;-64
2024/03/24 03:34:52;;;;;;;3.22;2.30;;;5.80;99.60;;;;;;5111251;28;20363;-63
2024/03/24 03:37:19;;;;;;;3.15;2.10;;;5.80;99.50;;;;;;5106941;28;20052;-63
2024/03/24 03:39:44;;;;;;;4.03;2.13;;;5.70;99.50;;;;;;5102929;28;20252;-64
2024/03/24 03:42:10;;;;;;;7.03;2.63;;;5.70;99.50;;;;;;5110726;28;20095;-64
2024/03/24 03:44:37;;;;;;;3.03;2.10;;;6.20;99.90;;;;;;5106503;28;20040;-64
2024/03/24 03:47:12;;;;;;;7.15;2.58;;;5.70;99.20;;;;;;5120478;28;20133;-64
2024/03/24 03:49:39;;;;;;;3.70;2.50;;;5.70;99.90;;;;;;5114618;28;20323;-63
2024/03/24 03:52:06;;;;;;;3.45;2.47;;;5.60;98.80;;;;;;5112725;28;20036;-63
2024/03/24 03:54:36;;;;;;;5.28;2.75;;;5.60;99.00;;;;;;5101126;28;20039;-63
2024/03/24 03:57:03;;;;;;;4.25;2.17;;;5.60;99.00;;;;;;5102479;28;20028;-63
2024/03/24 03:59:29;;;;;;;4.75;2.70;;;5.60;98.80;;;;;;5108022;28;20036;-64
2024/03/24 04:01:54;;;;;;;4.55;2.17;;;5.60;98.60;;;;;;5110801;28;20124;-64
2024/03/24 04:04:20;;;;;;;3.65;2.30;;;5.60;98.50;;;;;;5106090;28;20324;-64
2024/03/24 04:06:46;;;;;;;4.63;2.40;;;5.60;98.30;;;;;;5106484;28;20099;-66
2024/03/24 04:09:16;;;;;;;5.20;2.38;;;5.70;99.90;;;;;;5102028;28;20062;-66
2024/03/24 04:11:42;;;;;;;3.97;2.13;;;5.60;98.00;;;;;;5110754;28;20094;-67
2024/03/24 04:14:08;;;;;;;8.82;2.38;;;5.60;99.90;;;;;;5121056;28;20425;-64
2024/03/24 04:16:34;;;;;;;5.50;1.80;;;5.60;97.60;;;;;;5119700;27;20031;-64
2024/03/24 04:19:00;;;;;;;2.63;2.20;;;5.60;97.60;;;;;;5104022;28;20075;-63
2024/03/24 04:21:25;;;;;;;2.80;2.10;;;5.60;96.70;;;;;;5106648;28;20186;-63
2024/03/24 04:23:51;;;;;;;4.38;2.05;;;5.60;97.10;;;;;;5104917;28;20036;-63
2024/03/24 04:26:17;;;;;;;3.17;1.77;;;5.60;97.10;;;;;;5100088;28;20035;-64
2024/03/24 04:28:45;;;;;;;4.07;1.85;;;5.60;97.00;;;;;;5101075;28;20039;-63
2024/03/24 04:31:10;;;;;;;3.22;1.70;;;5.60;99.90;;;;;;5109508;28;20043;-63
2024/03/24 04:33:36;;;;;;;2.63;1.80;;;5.50;96.70;;;;;;5107071;28;20040;-64
2024/03/24 04:36:04;;;;;;;3.47;2.00;;;5.60;96.80;;;;;;5100059;28;20409;-62
2024/03/24 04:38:30;;;;;;;3.75;2.42;;;5.60;96.80;;;;;;5106807;28;20023;-63
2024/03/24 04:40:56;;;;;;;2.47;1.98;;;4.70;96.80;;;;;;5104135;28;20407;-63
2024/03/24 04:43:21;;;;;;;4.60;2.47;;;5.50;97.00;;;;;;5101369;28;20105;-63
2024/03/24 04:45:47;;;;;;;2.97;1.63;;;5.50;96.90;;;;;;5109400;28;20032;-63
2024/03/24 04:48:13;;;;;;;5.63;2.22;;;5.50;96.50;;;;;;5101734;28;20031;-63
2024/03/24 04:50:38;;;;;;;2.50;2.00;;;5.50;96.10;;;;;;5107257;28;20232;-63
2024/03/24 04:53:06;;;;;;;3.40;1.55;;;5.50;96.00;;;;;;5103248;28;20035;-63
2024/03/24 04:55:32;;;;;;;3.45;1.58;;;5.50;95.70;;;;;;5107696;28;20028;-62
2024/03/24 04:57:58;;;;;;;5.13;1.63;;;5.50;95.80;;;;;;5109073;28;20028;-65
2024/03/24 05:00:25;;;;;;;3.17;1.25;;;5.50;95.70;;;;;;5101392;28;20095;-66
2024/03/24 05:02:51;;;;;;;2.55;1.60;;;5.50;95.30;;;;;;5101630;28;20061;-64
2024/03/24 05:05:16;;;;;;;1.60;1.50;;;5.50;95.20;;;;;;5101372;28;20377;-66
2024/03/24 05:07:43;;;;;;;1.75;1.38;;;5.50;95.00;;;;;;5106783;28;20064;-63
2024/03/24 05:10:09;;;;;;;1.88;1.67;;;5.50;94.80;;;;;;5101177;28;20094;-64
2024/03/24 05:12:35;;;;;;;5.03;1.95;;;5.50;94.60;;;;;;5100790;28;20065;-64
2024/03/24 05:15:01;;;;;;;5.72;3.13;;;4.20;94.60;;;;;;5100494;28;20320;-63
2024/03/24 05:17:27;;;;;;;1.70;1.42;;;5.60;95.00;;;;;;5100919;28;20035;-64
2024/03/24 05:19:52;;;;;;;2.45;1.80;;;5.60;94.80;;;;;;5100704;28;20024;-64
2024/03/24 05:22:18;;;;;;;2.70;1.98;;;5.60;99.90;;;;;;5100886;28;20621;-64
2024/03/24 05:24:44;;;;;;;4.13;1.48;;;5.70;93.60;;;;;;5106171;28;20343;-64
2024/03/24 05:27:11;;;;;;;2.15;1.70;;;5.60;93.40;;;;;;5109189;28;20046;-64
2024/03/24 05:29:36;;;;;;;4.63;1.92;;;5.60;93.80;;;;;;5106127;28;20048;-64
2024/03/24 05:32:02;;;;;;;2.53;1.65;;;5.60;93.50;;;;;;5110153;28;20043;-65
2024/03/24 05:34:28;;;;;;;1.77;1.63;;;5.60;93.00;;;;;;5102787;28;20221;-64
2024/03/24 05:36:54;;;;;;;3.45;1.73;;;5.70;93.00;;;;;;5097040;28;20060;-64
2024/03/24 05:39:22;;;;;;;5.05;1.83;;;5.70;92.20;;;;;;5109344;28;20362;-64
2024/03/24 05:41:49;;;;;;;2.97;1.13;;;5.70;91.60;;;;;;5114266;28;20068;-64
2024/03/24 05:44:18;;;;;;;1.80;1.13;;;5.80;91.20;;;;;;5100572;28;20043;-63
2024/03/24 05:46:44;;;;;;;1.83;1.15;;;5.90;90.90;;;;;;5100665;28;20028;-63
2024/03/24 05:49:10;;;;;;;3.25;1.60;;;5.90;90.80;;;;;;5099113;28;20119;-63
2024/03/24 05:51:39;;;;;;;1.77;1.20;;;6.00;90.30;;;;;;5099121;28;20074;-63
2024/03/24 05:54:06;;;;;;;1.23;1.13;;;6.00;90.10;;;;;;5102230;28;20332;-63
2024/03/24 05:56:32;;;;;;;1.92;1.27;;;6.20;99.90;;;;;;5107384;28;20036;-63
2024/03/24 05:58:58;;;;;;;2.13;1.00;;;6.20;88.60;;;;;;5110144;28;20055;-64
2024/03/24 06:01:25;;;;;;;3.08;1.48;;;6.30;87.20;;;;;;5102462;28;20032;-63
2024/03/24 06:03:51;;;;;;;2.03;1.23;;;6.30;87.20;;;;;;5100864;28;20055;-64
2024/03/24 06:06:17;;;;;;;4.20;1.20;;;6.40;85.90;;;;;;5109176;28;20208;-64
2024/03/24 06:08:42;;;;;;;2.47;1.40;;;6.40;85.90;;;;;;5099663;28;20360;-64
2024/03/24 06:11:08;;;;;;;2.72;1.55;;;6.50;85.60;;;;;;5100040;28;20038;-63
2024/03/24 06:13:34;;;;;;;1.88;1.42;;;6.60;84.10;;;;;;5101343;28;20023;-63
2024/03/24 06:16:03;;;;;;;1.77;1.23;;;6.60;83.90;;;;;;5107235;28;20091;-63
2024/03/24 06:18:29;;;;;;;4.13;2.00;;;6.70;82.40;;;;;;5103163;28;20055;-63
2024/03/24 06:20:55;;;;;;;5.93;1.58;;;6.90;99.90;;;;;;5115953;28;20040;-63
2024/03/24 06:23:21;;;;;;;2.15;1.05;;;6.80;81.60;;;;;;5103913;28;20031;-63
2024/03/24 06:25:47;;;;;;;2.88;1.20;;;6.90;80.40;;;;;;5104372;28;20050;-63
2024/03/24 06:28:14;;;;;;;0.98;0.93;;;6.90;78.90;;;;;;5112658;28;20103;-63
2024/03/24 06:30:42;;;;;;;3.28;0.98;;;6.90;77.30;;;;;;5104582;28;20028;-63
2024/03/24 06:33:08;;;;;;;1.42;1.15;;;6.90;77.40;;;;;;5109341;28;20039;-63
2024/03/24 06:35:35;;;;;;;2.75;2.00;;;7.60;78.70;;;;;;5113288;28;20032;-63
2024/03/24 06:38:01;;;;;;;2.58;1.30;;;7.00;78.40;;;;;;5103751;28;20047;-63
2024/03/24 06:40:29;;;;;;;3.25;1.10;;;7.00;78.60;;;;;;5101882;28;20093;-65
2024/03/24 06:43:02;;;;;;;1.20;1.00;;;7.20;78.10;;;;;;5100166;28;20383;-66
2024/03/24 06:45:34;;;;;;;1.27;1.17;;;7.50;80.80;;;;;;5097624;28;20044;-66
2024/03/24 06:48:10;;;;;;;2.08;0.90;;;7.50;78.00;;;;;;5113675;28;20035;-64
2024/03/24 06:50:36;;;;;;;2.13;1.35;;;7.50;74.80;;;;;;5105932;28;20028;-65
2024/03/24 06:53:03;;;;;;;3.03;1.42;;;7.50;74.40;;;;;;5100267;28;20269;-65
2024/03/24 06:55:29;;;;;;;0.93;0.88;;;7.50;73.90;;;;;;5099895;28;20257;-65
2024/03/24 06:57:55;;;;;;;1.00;0.75;;;7.60;73.00;;;;;;5108317;28;20380;-64
2024/03/24 07:00:21;;;;;;;3.58;1.75;;;7.60;72.30;;;;;;5107936;28;20043;-65
2024/03/24 07:02:47;;;;;;;2.72;1.35;;;7.60;72.70;;;;;;5107072;28;20301;-64
2024/03/24 07:05:14;;;;;;;2.30;1.13;;;7.60;72.60;;;;;;5100181;28;20047;-64
2024/03/24 07:07:40;;;;;;;0.80;0.80;;;7.70;73.00;;;;;;5104401;28;20058;-64
2024/03/24 07:10:08;;;;;;;5.20;1.33;;;7.70;72.70;;;;;;5099334;28;20316;-66
2024/03/24 07:12:35;;;;;;;1.55;1.27;;;7.70;73.10;;;;;;5099158;28;20035;-64
2024/03/24 07:15:01;;;;;;;2.17;1.33;;;7.80;73.30;;;;;;5099191;28;20063;-64
2024/03/24 07:17:27;;;;;;;3.95;1.13;;;7.80;72.30;;;;;;5099388;28;20032;-64
2024/03/24 07:19:52;;;;;;;1.63;1.30;;;7.80;72.60;;;;;;5099104;28;20032;-64
2024/03/24 07:22:18;;;;;;;3.35;1.25;;;7.80;71.80;;;;;;5102483;28;20020;-63
2024/03/24 07:24:44;;;;;;;2.47;1.40;;;7.80;71.90;;;;;;5110362;28;20036;-67
2024/03/24 07:27:10;;;;;;;1.77;1.27;;;8.00;72.20;;;;;;5108492;28;20132;-67
2024/03/24 07:29:35;;;;;;;2.45;1.35;;;8.10;71.70;;;;;;5112217;28;20088;-67
2024/03/24 07:32:02;;;;;;;1.67;1.10;;;8.30;71.30;;;;;;5115889;28;20104;-67
2024/03/24 07:34:28;;;;;;;5.32;1.58;;;8.50;72.50;;;;;;5112421;28;20032;-67
2024/03/24 07:36:53;;;;;;;1.17;1.08;;;8.50;70.60;;;;;;5107009;28;20076;-67
2024/03/24 07:39:19;;;;;;;4.22;1.67;;;8.60;70.90;;;;;;5103660;28;20387;-66
2024/03/24 07:41:45;;;;;;;3.42;1.58;;;8.60;70.20;;;;;;5105844;28;20055;-66
2024/03/24 07:44:11;;;;;;;4.05;1.73;;;8.60;70.20;;;;;;5104306;28;20051;-67
2024/03/24 07:46:37;;;;;;;2.55;1.40;;;8.70;70.50;;;;;;5106866;28;20339;-67
2024/03/24 07:49:03;;;;;;;3.28;1.63;;;8.90;70.40;;;;;;5109715;28;20020;-68
2024/03/24 07:51:30;;;;;;;1.52;1.30;;;9.00;68.90;;;;;;5101910;28;20101;-67
2024/03/24 07:53:56;;;;;;;4.07;1.40;;;9.20;69.30;;;;;;5110791;28;20028;-67
2024/03/24 07:56:23;;;;;;;2.40;1.65;;;9.30;68.70;;;;;;5103910;28;20039;-66
2024/03/24 07:58:49;;;;;;;4.03;1.63;;;9.20;68.50;;;;;;5106453;28;20054;-66
2024/03/24 08:01:15;;;;;;;2.00;1.27;;;9.10;67.10;;;;;;5110414;28;20032;-67
2024/03/24 08:03:40;;;;;;;7.03;1.63;;;9.10;67.80;;;;;;5102153;28;20036;-66
2024/03/24 08:06:06;;;;;;;2.28;1.20;;;9.20;67.30;;;;;;5112110;28;20028;-68
2024/03/24 08:08:33;;;;;;;2.47;1.42;;;9.20;66.70;;;;;;5114328;28;20096;-68
2024/03/24 08:10:58;;;;;;;2.60;1.60;;;9.30;66.40;;;;;;5110714;28;20028;-68
2024/03/24 08:13:24;;;;;;;1.60;1.20;;;9.40;66.70;;;;;;5106292;28;20070;-68
2024/03/24 08:15:50;;;;;;;2.50;2.00;;;9.50;66.00;;;;;;5114703;28;20051;-65
2024/03/24 08:18:15;;;;;;;2.53;1.23;;;9.50;65.80;;;;;;5107951;28;20036;-65
2024/03/24 08:20:48;;;;;;;3.25;1.50;;;9.50;65.70;;;;;;5099775;28;20062;-64
2024/03/24 08:23:15;;;;;;;3.05;1.70;;;9.50;65.30;;;;;;5102008;28;20078;-65
2024/03/24 08:25:42;;;;;;;3.03;1.83;;;9.70;65.60;;;;;;5101851;28;20024;-68
2024/03/24 08:28:09;;;;;;;3.53;1.98;;;9.80;65.40;;;;;;5118628;28;20100;-68
2024/03/24 08:30:39;;;;;;;1.92;1.20;;;10.00;63.20;;;;;;5113330;28;20086;-67
2024/03/24 08:33:07;;;;;;;2.13;1.60;;;10.00;63.50;;;;;;5104436;28;20043;-65
2024/03/24 08:35:33;;;;;;;2.42;1.48;;;10.00;64.10;;;;;;5108235;28;20047;-67
2024/03/24 08:38:00;;;;;;;3.33;1.95;;;10.00;63.90;;;;;;5109876;28;20051;-66
2024/03/24 08:40:26;;;;;;;7.07;2.42;;;10.20;63.60;;;;;;5110054;28;20032;-66
2024/03/24 08:42:51;;;;;;;5.45;2.55;;;10.20;88.70;;;;;;5101265;28;20105;-67
2024/03/24 08:45:17;;;;;;;4.85;2.05;;;10.10;63.50;;;;;;5101046;28;20039;-67
2024/03/24 08:47:43;;;;;;;5.03;1.90;;;10.10;63.10;;;;;;5114229;28;20039;-66
2024/03/24 08:50:10;;;;;;;5.15;2.00;;;10.10;63.30;;;;;;5104867;27;20024;-71
2024/03/24 08:52:37;;;;;;;2.88;2.08;;;10.20;63.20;;;;;;5113114;28;20027;-69
2024/03/24 08:55:03;;;;;;;2.58;2.28;;;10.50;63.30;;;;;;5102811;28;20039;-70
2024/03/24 08:57:28;;;;;;;4.20;1.77;;;10.80;62.30;;;;;;5113996;28;20027;-68
2024/03/24 08:59:56;;;;;;;2.88;2.20;;;10.80;62.80;;;;;;5104565;28;20036;-68
2024/03/24 09:02:23;;;;;;;2.92;2.40;;;10.80;62.30;;;;;;5100938;28;20040;-68
2024/03/24 09:04:53;;;;;;;1.52;1.42;;;10.70;62.00;;;;;;5114810;28;20347;-69
2024/03/24 09:07:20;;;;;;;5.82;1.95;;;10.60;61.60;;;;;;5101169;28;20051;-65
2024/03/24 09:09:50;;;;;;;2.85;2.17;;;10.40;61.10;;;;;;5100782;28;20047;-67
2024/03/24 09:12:16;;;;;;;2.00;1.35;;;10.50;61.50;;;;;;5104129;28;20132;-67
2024/03/24 09:14:42;;;;;;;1.73;1.63;;;10.70;60.40;;;;;;5105751;28;20101;-64
2024/03/24 09:17:08;;;;;;;2.38;1.52;;;10.80;60.20;;;;;;5109110;28;20223;-64
2024/03/24 09:19:39;;;;;;;1.33;1.23;;;10.70;60.20;;;;;;5101033;28;20032;-64
2024/03/24 09:22:05;;;;;;;3.47;1.33;;;10.90;58.00;;;;;;5106478;28;20027;-65
2024/03/24 09:24:32;;;;;;;1.77;1.67;;;11.10;58.10;;;;;;5109079;28;20051;-64
2024/03/24 09:26:59;;;;;;;1.63;1.42;;;11.20;64.20;;;;;;5100863;28;20036;-64
2024/03/24 09:29:26;;;;;;;1.75;1.15;;;11.50;57.30;;;;;;5105451;28;20087;-64
2024/03/24 09:31:51;;;;;;;1.65;0.90;;;11.60;56.60;;;;;;5104198;28;20230;-64
2024/03/24 09:34:17;;;;;;;1.58;0.88;;;11.70;54.40;;;;;;5103960;28;20035;-64
2024/03/24 09:36:43;;;;;;;2.63;1.50;;;10.60;54.10;;;;;;5113636;28;20107;-64
2024/03/24 09:39:08;;;;;;;1.25;1.15;;;11.90;54.90;;;;;;5107885;28;20311;-63
2024/03/24 09:53:59;;;;;;;2.63;1.33;;;13.00;54.70;;;;;;5099423;27;20385;-65
2024/03/24 09:56:26;;;;;;;1.52;1.30;;;12.20;50.60;;;;;;5097440;28;20039;-65
2024/03/24 09:58:58;;;;;;;1.85;1.05;;;12.10;70.40;;;;;;5097104;28;20032;-64
2024/03/24 10:01:24;;;;;;;1.35;1.08;;;11.90;68.50;;;;;;5097012;28;20032;-64
2024/03/24 10:03:50;;;;;;;0.90;0.90;;;12.10;67.80;;;;;;5099547;28;20031;-65
2024/03/24 10:06:17;;;;;;;2.03;0.90;;;11.80;67.70;;;;;;5088608;28;20052;-65
2024/03/24 10:08:43;;;;;;;2.38;1.05;;;11.80;50.30;;;;;;5097029;28;20066;-64
2024/03/24 10:11:27;;;;;;;1.85;1.10;;;11.70;50.00;;;;;;5096785;28;20027;-65
2024/03/24 10:13:54;;;;;;;0.63;0.63;;;11.40;67.40;;;;;;5096848;28;20073;-65
2024/03/24 10:16:20;;;;;;;1.80;0.60;;;11.10;68.90;;;;;;5096979;28;20052;-65
2024/03/24 10:18:46;;;;;;;0.95;0.90;;;;;;;;;;5097974;28;20212;-65
2024/03/24 10:21:12;;;;;;;2.60;0.80;;;11.20;49.70;;;;;;5097031;28;20058;-64
2024/03/24 10:23:39;;;;;;;2.00;0.88;;;11.50;50.20;;;;;;5096709;28;20036;-64
2024/03/24 10:26:05;;;;;;;1.23;0.77;;;11.90;50.20;;;;;;5099950;28;20068;-65
2024/03/24 10:28:31;;;;;;;2.58;1.15;;;12.10;66.30;;;;;;5096801;28;20323;-64
2024/03/24 10:31:07;;;;;;;1.55;1.00;;;12.80;67.20;;;;;;5106284;28;20040;-64
2024/03/24 10:33:35;;;;;;;3.20;0.80;;;12.40;65.10;;;;;;5097001;28;20384;-64
2024/03/24 10:36:01;;;;;;;4.65;1.13;;;12.00;64.30;;;;;;5101822;28;20028;-65
2024/03/24 10:38:29;;;;;;;2.92;0.45;;;12.10;47.70;;;;;;5096494;28;20051;-65
2024/03/24 10:41:01;;;;;;;1.60;0.70;;;12.00;47.80;;;;;;5096487;28;20040;-65
2024/03/24 10:43:27;;;;;;;0.73;0.70;;;11.80;47.20;;;;;;5096292;28;20028;-64
2024/03/24 10:45:54;;;;;;;0.85;0.70;;;11.80;48.40;;;;;;5096261;28;20138;-64
2024/03/24 10:48:35;;;;;;;2.80;0.85;;;11.80;47.90;;;;;;5096140;28;20294;-64
2024/03/24 10:51:04;;;;;;;0.60;0.60;;;11.80;48.30;;;;;;5096105;28;20039;-64
2024/03/24 10:53:33;;;;;;;2.20;0.73;;;11.90;48.60;;;;;;5096474;28;20048;-64
2024/03/24 10:55:59;;;;;;;;;;;12.10;48.30;;;;;;5091283;28;20032;-64
2024/03/24 10:58:26;;;;;;;1.05;0.93;;;12.60;46.80;;;;;;5082601;28;20189;-64
2024/03/24 11:00:53;;;;;;;4.63;0.98;;;12.70;46.80;;;;;;5091399;28;20051;-64
2024/03/24 11:03:20;;;;;;;1.75;1.15;;;12.70;61.90;;;;;;5082350;28;20025;-64
2024/03/24 11:05:50;;;;;;;0.50;0.50;;;12.10;67.00;;;;;;5093047;28;20027;-65
2024/03/24 11:08:18;;;;;;;1.55;0.93;;;12.30;65.70;;;;;;5082620;28;20013;-64
2024/03/24 11:10:49;;;;;;;2.80;0.68;;;12.00;66.70;;;;;;5083084;28;20034;-64
2024/03/24 11:13:20;;;;;;;0.70;0.70;;;12.10;47.80;;;;;;5088431;28;20028;-65
2024/03/24 11:15:46;;;;;;;0.85;0.82;;;11.90;66.30;;;;;;5082509;28;20088;-65
2024/03/24 11:18:22;;;;;;;3.75;0.88;;;12.00;66.10;;;;;;5082257;28;20082;-68
2024/03/24 11:21:30;;;;;;;2.22;1.08;;;11.90;48.70;;;;;;5083852;28;20115;-68
2024/03/24 11:23:57;;;;;;;1.33;0.70;;;12.40;67.20;;;;;;5068323;28;20040;-68
2024/03/24 11:26:29;;;;;;;1.08;0.90;;;12.40;48.20;;;;;;5089506;28;20586;-68
2024/03/24 11:28:56;;;;;;;0.93;0.90;;;13.30;63.60;;;;;;5083015;28;20035;-68
2024/03/24 11:31:21;;;;;;;1.40;0.70;;;13.30;47.30;;;;;;5081928;28;20024;-67
2024/03/24 11:34:06;;;;;;;0.60;0.60;;;14.10;56.00;;;;;;5081960;28;20028;-68
2024/03/24 11:36:35;;;;;;;1.23;0.90;;;13.90;44.10;;;;;;5082004;28;20020;-68
2024/03/24 11:39:02;;;;;;;;;;;14.40;43.40;;;;;;5082137;28;20087;-69
2024/03/24 11:41:28;;;;;;;3.00;0.45;;;;;;;;;;5081681;28;19909;-69
2024/03/24 11:44:06;;;;;;;0.88;0.68;;;13.90;58.40;;;;;;5082067;28;20035;-69
2024/03/24 11:46:36;;;;;;;1.27;0.80;;;14.00;59.30;;;;;;5081682;28;20378;-69
2024/03/24 11:49:02;;;;;;;1.08;0.80;;;13.60;44.30;;;;;;5081403;28;20032;-68
2024/03/24 11:51:30;;;;;;;1.98;0.60;;;13.80;61.10;;;;;;5082827;28;20086;-68
2024/03/24 11:53:57;;;;;;;2.30;0.60;;;14.60;45.50;;;;;;5081407;28;20104;-68
2024/03/24 11:56:26;;;;;;;1.27;0.80;;;13.60;62.80;;;;;;5080336;28;20024;-67
2024/03/24 11:58:54;;;;;;;1.55;0.60;;;13.50;63.10;;;;;;5082968;28;20028;-65
2024/03/24 12:01:21;;;;;;;1.33;0.45;;;13.40;60.30;;;;;;5082081;28;20123;-68
2024/03/24 12:03:50;;;;;;;0.95;0.70;;;13.50;48.30;;;;;;5081720;28;20092;-65
2024/03/24 12:06:17;;;;;;;1.13;0.90;;;13.90;44.30;;;;;;5080338;28;20020;-68
2024/03/24 12:08:45;;;;;;;2.97;1.17;;;14.50;44.40;;;;;;5081342;28;20024;-69
2024/03/24 12:11:14;;;;;;;2.60;0.90;;;14.30;42.90;;;;;;5079816;28;20062;-68
2024/03/24 12:13:40;;;;;;;0.30;0.30;;;;;;;;;;5081207;28;20338;-68
2024/03/24 12:16:06;;;;;;;1.80;0.98;;;14.00;43.20;;;;;;5079671;28;20024;-70
2024/03/24 12:18:34;;;;;;;1.27;0.43;;;13.60;56.50;;;;;;5083218;28;20080;-70
2024/03/24 12:21:00;;;;;;;1.73;0.70;;;13.60;44.20;;;;;;5080766;28;20104;-70
2024/03/24 12:23:27;;;;;;;0.55;0.50;;;13.40;60.50;;;;;;5079560;28;20344;-70
2024/03/24 12:25:56;;;;;;;3.13;0.68;;;13.30;45.00;;;;;;5080743;28;20039;-70
2024/03/24 12:28:21;;;;;;;;;;;13.30;45.50;;;;;;5081134;28;20024;-70
2024/03/24 12:30:52;;;;;;;1.75;0.55;;;13.30;61.30;;;;;;5080959;28;19983;-70
2024/03/24 12:33:22;;;;;;;2.28;1.00;;;13.40;62.40;;;;;;5081258;28;20088;-70
2024/03/24 12:35:49;;;;;;;2.90;0.88;;;13.80;48.10;;;;;;5089400;28;20027;-70
2024/03/24 12:38:15;;;;;;;0.40;0.40;;;14.10;59.90;;;;;;5080672;28;20025;-69
2024/03/24 12:40:55;;;;;;;2.25;1.05;;;14.60;52.10;;;;;;5086491;28;20070;-70
2024/03/24 12:43:30;;;;;;;2.05;0.82;;;14.70;57.10;;;;;;5079534;28;20461;-70
2024/03/24 12:45:56;;;;;;;0.35;0.30;;;;;;;;;;5090354;28;20035;-69
2024/03/24 12:48:26;;;;;;;2.40;0.60;;;14.20;44.50;;;;;;5082331;28;20047;-70
2024/03/24 12:50:52;;;;;;;0.47;0.40;;;14.00;60.70;;;;;;5080644;28;20032;-69
2024/03/24 12:53:44;;;;;;;1.20;0.60;;;13.80;46.40;;;;;;5080848;28;20067;-70
2024/03/24 12:56:12;;;;;;;0.80;0.50;;;13.10;47.40;;;;;;5080222;28;20034;-69
2024/03/24 12:58:41;;;;;;;0.73;0.50;;;13.00;47.60;;;;;;5080391;28;20029;-70
2024/03/24 13:01:07;;;;;;;1.55;0.70;;;12.70;52.40;;;;;;5062546;28;20073;-69
2024/03/24 13:03:37;;;;;;;2.30;0.60;;;13.00;64.80;;;;;;5080283;28;20047;-69
2024/03/24 13:06:08;;;;;;;1.10;0.70;;;12.10;67.70;;;;;;5080130;28;20066;-69